00:06
Airports
History
Links
Donate
Help keep this website running!
PayPal
Bitcoin
This page is community maintained. The information is intended for PC simulator navigation or reference.
Always use approved charts for navigation.
CYWK
WABUSH
WABUSH (CYWK)
Wabush, Newfoundland and Labrador, Canada
(U)
Lat/Lng:52° 54' 26.74" N / 66° 51' 17.59" W
52.907429 / -66.854885
Elevation:1808'ft / 551mMSL
ID / ICAO:CYWK
Runways:1
Longest:18-36
Asphalt 1,819m / 5,967ft
METAR23:00 GMT 2017-10-16
Altimeter: 29.87
Visibility: 15.0 statute miles
Wind: 7 knots (from 310°)
Temp: -2°c / 28°f
Humidity: 68.5%

METAR: CYWK 162300Z 31007KT 15SM OVC034 M02/M07 A2987 RMK SC8 SLP150

(Powered by phpweather)
Airport Radio Frequencies
Tower: 122
Approach: 132.25
Nearby VORs <50NM
Nearby NDBs
Runway 18 / 36
Dimensions:1818.6 x 45.7m 5967' x 150'ft
Surface:Asphalt
Edge Lights:High intensity
Runway 18 [A]Runway 36 [B]
Heading:157°TH 337°TH
Lat:
Lng:
52° 54' 54"N
66° 51' 36.6"W
52° 53' 59.49"N
66° 50' 58.57"W
ALS:ODALSSSALR
TDZ:Yes, lighted
User Notes and Comments
52° 54' 26.74" N / 66° 51' 17.59" W
Distance To
Airport ID:
Nearby Airports
(U) CHURCHILL FALLS 122.3 NM
CZUM ENE 68°
(U) SCHEFFERVILLE 131.1 NM
CYKL ( WX ) N
(C) SEPT ILES 187.1 NM
CYZV ( WX ) S 172°
(U) HAVRE ST PIERRE 228.6 NM
CYGV ( WX ) SE 142°
(U) PORT MENIER 239.3 NM
CYPN SSE 152°
(C) Squirrel Cove 262.1 NM
CYSZ S 176°
(U) BAIE COMEAU 267.4 NM
CYBC ( WX ) SSW 192°
VFR Chart
Flight Planning at SkyVector.com